Time;durP1;ratioP1;P1;durP2;ratioP2;P2;SDS_P1;SDS_P2;PMS_P1;PMS_P2;Temp;Humidity;BMP_temperature;BMP_pressure;BME280_temperature;BME280_humidity;BME280_pressure;Samples;Min_cycle;Max_cycle;Signal;HPM_P1;HPM_P2
2024/02/24 00:02:15;;;;;;;1.80;0.40;;;;;;;7.91;63.60;95303.84;4997514;28;20129;-80
2024/02/24 00:04:41;;;;;;;0.40;0.30;;;;;;;7.94;63.58;95305.88;4974963;28;20037;-79
2024/02/24 00:07:06;;;;;;;4.40;1.58;;;;;;;7.99;63.52;95308.44;5002956;28;20572;-80
2024/02/24 00:09:31;;;;;;;7.07;2.70;;;;;;;8.08;63.21;95318.97;4984524;28;20402;-80
2024/02/24 00:11:57;;;;;;;4.97;2.22;;;;;;;8.11;63.48;95318.44;5015585;28;20033;-80
2024/02/24 00:14:22;;;;;;;3.83;1.40;;;;;;;8.06;63.33;95315.91;5019789;28;20065;-80
2024/02/24 00:16:47;;;;;;;1.40;0.77;;;;;;;8.05;63.02;95325.50;4997869;28;20034;-80
2024/02/24 00:19:13;;;;;;;1.30;0.60;;;;;;;8.05;63.51;95320.31;4990544;28;20084;-80
2024/02/24 00:21:38;;;;;;;0.70;0.50;;;;;;;8.04;63.85;95326.53;5011132;28;20486;-80
2024/02/24 00:24:03;;;;;;;0.60;0.30;;;;;;;8.04;63.60;95328.34;4991798;28;20429;-80
2024/02/24 00:26:29;;;;;;;1.23;0.40;;;;;;;8.05;63.61;95330.69;4996415;28;20546;-80
2024/02/24 00:28:54;;;;;;;0.90;0.40;;;;;;;8.05;64.15;95337.66;4996486;28;20037;-80
2024/02/24 00:31:20;;;;;;;0.70;0.43;;;;;;;8.09;64.45;95335.28;5016954;28;20033;-80
2024/02/24 00:33:45;;;;;;;1.20;0.30;;;;;;;8.10;64.12;95326.47;5003665;28;20404;-80
2024/02/24 00:36:11;;;;;;;1.60;0.50;;;;;;;8.10;63.86;95331.66;4988427;28;20041;-80
2024/02/24 00:38:36;;;;;;;0.90;0.40;;;;;;;8.09;63.84;95324.94;5003589;28;20037;-80
2024/02/24 00:41:02;;;;;;;0.40;0.30;;;;;;;8.11;63.59;95325.44;5018619;28;20060;-80
2024/02/24 00:43:27;;;;;;;0.93;0.40;;;;;;;8.14;64.03;95327.47;5013276;28;20105;-79
2024/02/24 00:45:52;;;;;;;1.13;0.45;;;;;;;8.10;63.87;95321.31;4999805;28;20088;-80
2024/02/24 00:48:18;;;;;;;0.77;0.38;;;;;;;8.07;63.56;95312.25;4997738;28;20497;-80
2024/02/24 00:50:43;;;;;;;0.50;0.40;;;;;;;8.12;64.26;95319.97;5013160;28;20493;-80
2024/02/24 00:53:08;;;;;;;1.33;0.50;;;;;;;8.13;63.54;95323.34;5011523;28;20060;-80
2024/02/24 00:55:34;;;;;;;0.52;0.30;;;;;;;8.19;63.71;95327.41;5004748;28;20029;-85
2024/02/24 00:57:59;;;;;;;1.30;0.40;;;;;;;8.18;64.23;95326.66;5009489;28;20478;-80
2024/02/24 01:00:24;;;;;;;1.08;0.20;;;;;;;8.20;63.78;95316.03;4997646;28;20052;-78
2024/02/24 01:02:50;;;;;;;0.38;0.30;;;;;;;8.17;63.62;95311.38;5003853;28;20049;-79
2024/02/24 01:05:15;;;;;;;0.90;0.30;;;;;;;8.16;63.99;95312.44;5021405;28;20033;-79
2024/02/24 01:07:43;;;;;;;0.35;0.30;;;;;;;8.22;64.29;95319.88;5007396;28;20036;-80
2024/02/24 01:10:10;;;;;;;0.57;0.40;;;;;;;8.25;63.49;95313.38;5015996;28;20234;-79
2024/02/24 01:12:35;;;;;;;0.45;0.30;;;;;;;8.26;63.73;95309.75;5006885;28;20107;-79
2024/02/24 01:15:01;;;;;;;1.05;0.82;;;;;;;8.21;63.94;95307.22;4992629;28;20033;-79
2024/02/24 01:17:26;;;;;;;0.47;0.30;;;;;;;8.28;63.80;95312.03;4994357;28;20042;-79
2024/02/24 01:19:51;;;;;;;0.98;0.60;;;;;;;8.25;63.62;95310.78;4999656;28;20120;-78
2024/02/24 01:22:17;;;;;;;2.15;0.75;;;;;;;8.20;63.29;95305.66;4976564;28;20620;-78
2024/02/24 01:24:43;;;;;;;1.10;0.50;;;;;;;8.29;63.86;95309.19;5015903;28;20070;-78
2024/02/24 01:27:08;;;;;;;0.70;0.40;;;;;;;8.33;63.76;95314.56;5008937;28;20041;-79
2024/02/24 01:29:33;;;;;;;0.52;0.40;;;;;;;8.31;63.19;95312.28;5007655;28;20030;-78
2024/02/24 01:32:01;;;;;;;1.40;0.40;;;;;;;8.33;64.19;95314.56;5015807;28;20390;-79
2024/02/24 01:34:27;;;;;;;1.15;0.70;;;;;;;8.38;63.17;95317.91;5009549;28;20463;-79
2024/02/24 01:36:53;;;;;;;1.05;0.45;;;;;;;8.37;63.36;95305.97;5021564;28;20098;-79
2024/02/24 01:39:18;;;;;;;1.92;0.43;;;;;;;8.44;63.32;95311.63;4986450;28;20037;-79
2024/02/24 01:41:44;;;;;;;1.27;0.80;;;;;;;8.34;63.58;95311.72;4985451;28;20105;-79
2024/02/24 01:44:09;;;;;;;1.27;0.60;;;;;;;8.38;63.34;95307.53;5007861;28;20026;-79
2024/02/24 01:46:35;;;;;;;0.47;0.38;;;;;;;8.42;63.28;95316.34;4992980;28;20084;-80
2024/02/24 01:49:00;;;;;;;1.50;0.60;;;;;;;8.35;63.07;95308.09;5007634;28;20144;-80
2024/02/24 01:51:26;;;;;;;1.13;0.80;;;;;;;8.32;64.15;95320.84;4992931;28;20076;-79
2024/02/24 01:53:51;;;;;;;1.90;0.52;;;;;;;8.31;63.33;95312.28;5015733;28;20030;-79
2024/02/24 01:56:18;;;;;;;1.40;0.65;;;;;;;8.34;64.34;95316.91;5010744;28;20187;-78
2024/02/24 01:58:44;;;;;;;1.20;0.75;;;;;;;8.31;63.68;95317.47;5011705;28;20536;-78
2024/02/24 02:01:10;;;;;;;1.00;0.60;;;;;;;8.28;64.34;95310.25;5004984;28;20034;-79
2024/02/24 02:03:36;;;;;;;1.23;0.70;;;;;;;8.31;63.27;95317.47;4975990;28;20454;-79
2024/02/24 02:06:02;;;;;;;1.20;0.90;;;;;;;8.38;64.25;95323.09;5017070;28;20393;-84
2024/02/24 02:08:28;;;;;;;1.95;1.27;;;;;;;8.32;63.57;95319.00;4993445;28;20516;-84
2024/02/24 02:10:55;;;;;;;1.13;0.60;;;;;;;8.29;63.23;95319.53;5020999;28;20038;-84
2024/02/24 02:13:22;;;;;;;2.05;0.93;;;;;;;8.29;63.73;95313.59;4985649;28;20504;-84
2024/02/24 02:15:56;;;;;;;0.70;0.65;;;;;;;8.38;63.49;95327.50;4995684;28;20096;-79
2024/02/24 02:18:22;;;;;;;1.57;0.70;;;;;;;8.23;63.46;95324.00;5009810;28;20049;-79
2024/02/24 02:20:51;;;;;;;1.13;0.80;;;;;;;8.18;63.98;95325.91;5000115;28;20442;-79
2024/02/24 02:23:17;;;;;;;1.88;0.90;;;;;;;8.27;63.64;95329.41;5011959;28;20037;-80
2024/02/24 02:25:42;;;;;;;1.00;0.70;;;;;;;8.33;62.47;95325.75;5011717;28;20044;-78
2024/02/24 02:28:08;;;;;;;1.40;1.05;;;;;;;8.31;62.80;95320.06;5003066;28;20033;-78
2024/02/24 02:30:33;;;;;;;1.25;0.73;;;;;;;8.25;63.94;95324.50;5022020;28;20037;-79
2024/02/24 02:32:59;;;;;;;1.73;0.80;;;;;;;8.25;63.14;95329.69;5009585;28;20029;-80
2024/02/24 02:35:27;;;;;;;1.20;1.10;;;;;;;8.25;62.68;95323.75;5002668;28;20068;-79
2024/02/24 02:37:52;;;;;;;0.80;0.45;;;;;;;8.22;63.93;95332.06;4991078;28;20040;-79
2024/02/24 02:40:17;;;;;;;1.77;0.50;;;;;;;8.25;62.87;95334.13;5015149;28;20033;-79
2024/02/24 02:42:43;;;;;;;1.38;0.60;;;;;;;8.17;62.94;95337.31;5018073;28;20037;-80
2024/02/24 02:45:08;;;;;;;1.45;0.50;;;;;;;8.18;63.51;95341.44;5007446;28;20061;-79
2024/02/24 02:47:33;;;;;;;0.60;0.40;;;;;;;8.19;63.26;95350.75;5006225;28;20072;-79
2024/02/24 02:49:59;;;;;;;0.98;0.45;;;;;;;8.17;62.83;95343.25;5000335;28;20069;-79
2024/02/24 02:52:24;;;;;;;1.27;0.50;;;;;;;8.05;63.55;95340.25;5008515;28;20367;-79
2024/02/24 02:54:50;;;;;;;1.58;0.47;;;;;;;7.96;63.55;95337.47;5011735;28;20133;-79
2024/02/24 02:57:16;;;;;;;0.60;0.32;;;;;;;7.96;63.39;95334.88;5001397;28;20033;-79
2024/02/24 02:59:42;;;;;;;1.30;0.40;;;;;;;7.88;63.49;95336.25;4999706;28;20049;-79
2024/02/24 03:02:07;;;;;;;1.17;0.30;;;;;;;7.93;64.00;95327.66;4989337;28;20474;-80
2024/02/24 03:04:33;;;;;;;1.38;0.40;;;;;;;7.90;63.85;95323.03;5012244;28;20045;-79
2024/02/24 03:06:58;;;;;;;0.60;0.40;;;;;;;7.84;63.52;95330.06;5007323;28;20067;-79
2024/02/24 03:09:24;;;;;;;1.27;0.30;;;;;;;7.75;63.45;95326.53;5009957;28;20482;-80
2024/02/24 03:11:49;;;;;;;0.50;0.30;;;;;;;7.72;63.06;95329.66;5017467;28;20118;-80
2024/02/24 03:14:14;;;;;;;0.88;0.38;;;;;;;7.69;63.44;95337.94;5002673;28;20033;-80
2024/02/24 03:16:40;;;;;;;0.50;0.30;;;;;;;7.61;62.86;95339.31;5001129;28;20049;-79
2024/02/24 03:19:08;;;;;;;0.60;0.40;;;;;;;7.62;63.82;95342.69;4989582;28;20041;-80
2024/02/24 03:21:33;;;;;;;2.15;0.30;;;;;;;7.63;63.86;95344.22;5005787;28;20465;-80
2024/02/24 03:23:59;;;;;;;1.00;0.30;;;;;;;7.63;64.00;95355.34;5014818;28;20038;-80
2024/02/24 03:26:25;;;;;;;0.30;0.30;;;;;;;7.73;64.00;95343.38;4978899;28;20038;-84
2024/02/24 03:28:50;;;;;;;0.43;0.43;;;;;;;7.80;63.51;95349.81;4986786;28;20037;-85
2024/02/24 03:31:16;;;;;;;0.40;0.30;;;;;;;7.75;64.36;95346.47;4991193;28;20058;-81
2024/02/24 03:33:42;;;;;;;1.13;0.50;;;;;;;7.82;63.67;95345.13;4983207;28;20068;-84
2024/02/24 03:36:15;;;;;;;0.30;0.20;;;;;;;7.94;63.84;95337.00;4995921;28;20371;-84
2024/02/24 03:38:40;;;;;;;1.50;0.65;;;;;;;7.91;63.52;95349.72;5015110;28;20265;-85
2024/02/24 03:41:08;;;;;;;1.25;0.30;;;;;;;7.89;62.72;95352.56;5007458;28;20390;-84
2024/02/24 03:43:34;;;;;;;0.90;0.40;;;;;;;7.97;63.08;95349.41;5007914;28;20124;-83
2024/02/24 03:46:02;;;;;;;1.08;0.30;;;;;;;7.89;63.14;95349.97;4989948;28;20521;-84
2024/02/24 03:48:28;;;;;;;1.15;0.40;;;;;;;7.96;63.17;95355.63;5010073;28;20037;-84
2024/02/24 03:50:55;;;;;;;0.30;0.20;;;;;;;7.83;63.02;95353.66;5003462;28;20512;-85
2024/02/24 03:53:21;;;;;;;1.55;0.40;;;;;;;7.86;63.52;95358.28;5000054;28;20187;-84
2024/02/24 03:55:47;;;;;;;0.45;0.30;;;;;;;7.91;62.95;95354.91;5007794;28;20500;-83
2024/02/24 03:58:13;;;;;;;0.70;0.30;;;;;;;7.92;62.40;95349.44;5009239;28;20072;-85
2024/02/24 04:00:38;;;;;;;0.95;0.32;;;;;;;7.92;62.34;95353.84;4975830;28;20026;-84
2024/02/24 04:03:04;;;;;;;0.50;0.30;;;;;;;7.92;62.88;95353.84;4998077;28;20517;-85
2024/02/24 04:05:30;;;;;;;1.85;0.40;;;;;;;7.88;62.43;95351.81;4982150;28;20500;-83
2024/02/24 04:07:55;;;;;;;2.03;0.50;;;;;;;7.83;62.60;95333.72;5001044;28;20567;-83
2024/02/24 04:10:21;;;;;;;0.47;0.28;;;;;;;7.87;63.11;95333.94;4984661;28;20065;-84
2024/02/24 04:12:46;;;;;;;0.77;0.30;;;;;;;7.82;62.85;95342.53;5007965;28;20029;-84
2024/02/24 04:15:17;;;;;;;1.83;0.50;;;;;;;7.90;62.04;95341.19;5016957;28;20093;-85
2024/02/24 04:17:43;;;;;;;0.52;0.40;;;;;;;7.87;62.10;95346.91;5013219;28;20529;-84
2024/02/24 04:20:09;;;;;;;0.68;0.45;;;;;;;7.85;62.40;95351.59;5006806;28;20124;-84
2024/02/24 04:22:34;;;;;;;0.55;0.30;;;;;;;7.85;62.58;95360.13;5005551;28;20417;-85
2024/02/24 04:24:59;;;;;;;1.23;0.47;;;;;;;7.77;63.54;95354.75;4990555;28;20570;-83
2024/02/24 04:27:25;;;;;;;0.60;0.40;;;;;;;7.67;63.89;95351.19;4982186;28;20034;-82
2024/02/24 04:29:51;;;;;;;0.65;0.50;;;;;;;7.75;63.50;95347.25;4994940;28;20033;-83
2024/02/24 04:32:16;;;;;;;0.68;0.40;;;;;;;7.72;62.88;95347.78;4980688;28;20057;-83
2024/02/24 04:34:42;;;;;;;0.75;0.45;;;;;;;7.79;63.05;95356.00;5005791;28;20128;-83
2024/02/24 04:37:07;;;;;;;0.77;0.60;;;;;;;7.84;62.76;95355.22;4994593;28;20030;-78
2024/02/24 04:39:35;;;;;;;0.70;0.50;;;;;;;7.79;62.81;95343.06;5000465;28;20042;-78
2024/02/24 04:42:01;;;;;;;0.75;0.50;;;;;;;7.71;62.70;95348.06;5007545;28;20038;-79
2024/02/24 04:44:27;;;;;;;2.50;0.50;;;;;;;7.76;62.67;95350.59;5009132;28;20496;-79
2024/02/24 04:46:53;;;;;;;1.25;0.70;;;;;;;7.80;63.15;95349.03;5003834;28;20302;-79
2024/02/24 04:49:18;;;;;;;0.68;0.40;;;;;;;7.87;62.79;95350.25;4995833;28;20095;-78
2024/02/24 04:51:43;;;;;;;0.47;0.40;;;;;;;7.89;62.42;95355.16;5004635;28;20026;-78
2024/02/24 04:54:09;;;;;;;0.68;0.47;;;;;;;7.83;62.96;95348.47;4985875;28;20030;-78
2024/02/24 04:56:34;;;;;;;0.93;0.93;;;;;;;7.77;63.15;95354.75;4977944;28;20072;-78
2024/02/24 04:58:59;;;;;;;1.50;0.60;;;;;;;7.80;62.96;95354.22;5004167;28;20034;-78
2024/02/24 05:01:25;;;;;;;0.57;0.40;;;;;;;7.79;63.10;95368.19;4996397;28;20038;-78
2024/02/24 05:03:50;;;;;;;0.50;0.50;;;;;;;7.96;62.87;95371.16;5007006;28;20514;-79
2024/02/24 05:06:16;;;;;;;0.88;0.60;;;;;;;7.88;63.04;95369.94;4995921;28;20460;-78
2024/02/24 05:08:43;;;;;;;1.73;0.80;;;;;;;7.87;62.53;95372.81;4978208;28;20128;-78
2024/02/24 05:11:09;;;;;;;0.88;0.52;;;;;;;7.80;62.83;95370.53;5005136;28;20034;-78
2024/02/24 05:13:35;;;;;;;1.08;0.52;;;;;;;7.93;62.33;95389.84;4977915;28;20457;-79
2024/02/24 05:16:04;;;;;;;2.28;0.65;;;;;;;7.89;62.48;95383.66;4976547;28;20121;-78
2024/02/24 05:18:29;;;;;;;2.63;0.60;;;;;;;7.84;62.78;95389.66;4984938;28;20070;-78
2024/02/24 05:20:55;;;;;;;0.90;0.60;;;;;;;7.69;63.75;95385.38;5006534;28;20073;-79
2024/02/24 05:23:21;;;;;;;1.52;0.50;;;;;;;7.75;63.29;95393.88;5008028;28;20042;-79
2024/02/24 05:25:46;;;;;;;0.93;0.60;;;;;;;7.67;63.13;95387.44;5024543;28;20091;-79
2024/02/24 05:28:11;;;;;;;0.43;0.40;;;;;;;7.90;62.73;95387.81;4998656;28;20029;-79
2024/02/24 05:30:37;;;;;;;1.17;0.52;;;;;;;7.97;62.97;95392.66;5000769;28;20474;-79
2024/02/24 05:33:02;;;;;;;1.00;0.70;;;;;;;7.96;62.46;95407.44;5000726;28;20509;-78
2024/02/24 05:35:28;;;;;;;0.80;0.60;;;;;;;7.82;63.28;95403.94;4996488;28;20034;-78
2024/02/24 05:38:04;;;;;;;0.82;0.60;;;;;;;7.98;62.56;95400.19;4981284;28;20030;-79
2024/02/24 05:40:32;;;;;;;0.80;0.68;;;;;;;7.91;62.61;95407.50;5006749;28;20574;-78
2024/02/24 05:42:58;;;;;;;1.15;0.50;;;;;;;7.71;63.68;95407.63;5012784;28;20042;-77
2024/02/24 05:45:23;;;;;;;1.50;0.60;;;;;;;7.93;62.36;95408.00;5017593;28;20452;-78
2024/02/24 05:47:48;;;;;;;1.58;0.60;;;;;;;7.98;62.87;95413.13;5005080;28;20034;-78
2024/02/24 05:50:14;;;;;;;0.45;0.40;;;;;;;7.95;62.15;95418.88;4986890;28;20121;-78
2024/02/24 05:52:39;;;;;;;0.82;0.47;;;;;;;8.01;62.36;95419.59;4993433;28;20145;-79
2024/02/24 05:55:07;;;;;;;1.02;0.60;;;;;;;8.02;62.96;95431.50;4987351;28;20040;-79
2024/02/24 05:57:32;;;;;;;0.52;0.50;;;;;;;7.86;62.14;95436.03;5023424;28;20033;-78
2024/02/24 05:59:58;;;;;;;0.50;0.50;;;;;;;7.77;62.40;95428.06;4987891;28;20038;-78
2024/02/24 06:02:23;;;;;;;0.98;0.50;;;;;;;7.68;63.48;95425.25;5014061;28;20037;-79
2024/02/24 06:04:49;;;;;;;0.40;0.40;;;;;;;7.78;62.50;95442.56;5000301;28;20421;-79
2024/02/24 06:07:14;;;;;;;1.55;0.60;;;;;;;7.90;62.05;95441.44;4993343;28;20099;-78
2024/02/24 06:09:40;;;;;;;1.15;0.70;;;;;;;7.92;62.57;95444.53;5019683;28;20026;-78
2024/02/24 06:12:05;;;;;;;1.50;0.40;;;;;;;8.02;62.73;95442.66;4980272;28;20092;-78
2024/02/24 06:14:31;;;;;;;0.55;0.45;;;;;;;7.69;62.83;95438.97;4984362;28;20040;-79
2024/02/24 06:16:56;;;;;;;0.93;0.35;;;;;;;7.94;61.96;95450.25;5003727;28;20034;-78
2024/02/24 06:19:22;;;;;;;1.42;0.75;;;;;;;7.84;62.30;95454.44;5015984;28;20040;-79
2024/02/24 06:21:47;;;;;;;0.98;0.50;;;;;;;7.83;62.13;95457.28;4994860;28;20060;-78
2024/02/24 06:24:13;;;;;;;0.88;0.40;;;;;;;7.90;62.81;95467.34;4999303;28;20040;-80
2024/02/24 06:26:39;;;;;;;0.52;0.40;;;;;;;7.74;62.37;95458.91;5008715;28;20115;-78
2024/02/24 06:29:04;;;;;;;0.70;0.50;;;;;;;7.61;62.68;95458.47;4994491;28;20033;-78
2024/02/24 06:31:30;;;;;;;0.70;0.40;;;;;;;7.87;62.25;95468.69;5006251;28;20033;-78
2024/02/24 06:33:55;;;;;;;0.30;0.30;;;;;;;7.86;62.07;95465.31;5019028;28;20114;-79
2024/02/24 06:36:21;;;;;;;1.17;0.50;;;;;;;8.01;62.48;95464.44;4981757;28;20025;-79
2024/02/24 06:38:47;;;;;;;0.40;0.40;;;;;;;7.93;61.98;95477.97;4979757;28;20465;-79
2024/02/24 06:41:12;;;;;;;0.60;0.40;;;;;;;7.86;62.98;95473.09;4998200;28;20389;-79
2024/02/24 06:43:37;;;;;;;0.50;0.40;;;;;;;7.93;62.37;95488.31;4990839;28;20029;-78
2024/02/24 06:46:03;;;;;;;1.25;0.50;;;;;;;7.78;63.05;95484.03;4999455;28;20052;-79
2024/02/24 06:48:28;;;;;;;0.40;0.40;;;;;;;7.77;62.97;95495.41;5021975;28;20034;-84
2024/02/24 06:50:54;;;;;;;0.88;0.57;;;;;;;7.84;63.43;95501.06;5004276;28;20103;-84
2024/02/24 06:53:19;;;;;;;0.70;0.40;;;;;;;7.86;63.17;95500.81;4990285;28;20060;-82
2024/02/24 06:55:44;;;;;;;0.63;0.40;;;;;;;7.74;62.87;95506.31;4989904;28;20061;-85
2024/02/24 06:58:10;;;;;;;0.60;0.38;;;;;;;7.65;64.05;95507.91;4979801;28;20515;-78
2024/02/24 07:00:35;;;;;;;0.80;0.38;;;;;;;7.71;63.94;95521.59;5006930;28;20037;-78
2024/02/24 07:03:00;;;;;;;1.25;0.40;;;;;;;7.56;64.15;95515.47;4982378;28;20034;-79
2024/02/24 07:05:26;;;;;;;1.27;0.40;;;;;;;7.65;63.27;95526.81;4981303;28;20034;-79
2024/02/24 07:07:51;;;;;;;0.30;0.30;;;;;;;7.60;64.60;95520.88;5005627;28;20485;-79
2024/02/24 07:10:17;;;;;;;0.40;0.30;;;;;;;7.54;63.62;95527.91;5015006;28;20042;-79
2024/02/24 07:12:43;;;;;;;0.30;0.30;;;;;;;7.30;65.18;95533.69;5015538;28;20045;-78
2024/02/24 07:15:09;;;;;;;0.30;0.30;;;;;;;7.22;65.26;95547.16;4974819;28;20034;-78
2024/02/24 07:17:34;;;;;;;0.25;0.25;;;;;;;7.23;65.19;95553.91;4993278;28;20413;-79
2024/02/24 07:20:00;;;;;;;0.30;0.30;;;;;;;6.88;65.84;95552.13;5005116;28;20040;-78
2024/02/24 07:22:25;;;;;;;0.30;0.30;;;;;;;7.12;64.59;95567.88;5008075;28;20053;-78
2024/02/24 07:24:51;;;;;;;0.50;0.22;;;;;;;7.24;63.99;95573.56;5010793;28;20029;-78
2024/02/24 07:27:17;;;;;;;0.20;0.20;;;;;;;7.24;64.71;95575.38;4984777;28;20045;-79
2024/02/24 07:29:42;;;;;;;1.20;0.20;;;;;;;7.21;65.45;95587.00;5000907;28;20060;-79
2024/02/24 07:32:08;;;;;;;0.20;0.20;;;;;;;7.22;64.64;95585.97;5010397;28;20108;-79
2024/02/24 07:34:33;;;;;;;0.35;0.20;;;;;;;7.18;65.31;95594.53;5007899;28;20121;-79
2024/02/24 07:36:59;;;;;;;0.22;0.20;;;;;;;7.30;64.57;95595.81;5014930;28;20034;-79
2024/02/24 07:39:25;;;;;;;0.10;0.10;;;;;;;7.22;65.20;95598.16;5010355;28;20080;-78
2024/02/24 07:41:51;;;;;;;0.13;0.13;;;;;;;7.24;65.21;95612.38;4987846;28;20026;-80
2024/02/24 07:44:16;;;;;;;0.20;0.20;;;;;;;6.98;65.54;95621.22;5009208;28;20092;-79
2024/02/24 07:46:41;;;;;;;0.20;0.20;;;;;;;7.20;65.05;95631.31;5022446;28;20041;-80
2024/02/24 07:49:07;;;;;;;2.25;0.45;;;;;;;7.14;64.82;95630.50;5000787;28;20030;-79
2024/02/24 07:51:34;;;;;;;0.52;0.30;;;;;;;7.16;65.99;95643.19;5000460;28;20120;-79
2024/02/24 07:53:59;;;;;;;0.40;0.30;;;;;;;7.29;65.59;95655.63;4991077;28;20030;-80
2024/02/24 07:56:25;;;;;;;0.40;0.20;;;;;;;7.29;65.16;95658.19;4985128;28;20040;-78
2024/02/24 07:58:51;;;;;;;1.60;0.30;;;;;;;7.01;65.11;95651.72;4991684;28;20088;-78
2024/02/24 08:01:17;;;;;;;0.43;0.30;;;;;;;7.04;64.84;95656.38;4991225;28;20413;-80
2024/02/24 08:03:42;;;;;;;0.30;0.28;;;;;;;7.27;64.34;95662.88;5023160;28;20437;-79
2024/02/24 08:06:08;;;;;;;0.30;0.30;;;;;;;7.34;63.86;95663.38;5002244;28;20014;-79
2024/02/24 08:08:35;;;;;;;1.20;0.40;;;;;;;7.47;62.66;95677.59;5012236;28;20037;-80
2024/02/24 08:11:00;;;;;;;0.93;0.38;;;;;;;7.41;63.85;95678.66;5010942;28;20120;-80
2024/02/24 08:13:27;;;;;;;1.58;0.50;;;;;;;7.27;64.38;95675.81;5011457;28;20099;-79
2024/02/24 08:15:55;;;;;;;0.32;0.30;;;;;;;7.42;63.55;95675.81;5015495;28;20133;-79
2024/02/24 08:18:23;;;;;;;0.35;0.32;;;;;;;7.54;64.18;95682.50;5018356;28;20129;-79
2024/02/24 08:20:49;;;;;;;0.85;0.60;;;;;;;7.52;63.29;95690.53;5007216;28;20044;-79
2024/02/24 08:23:15;;;;;;;0.47;0.30;;;;;;;7.49;63.88;95685.91;4976496;28;20529;-79
2024/02/24 08:25:40;;;;;;;0.55;0.43;;;;;;;7.49;64.04;95688.50;5012898;28;20042;-80
2024/02/24 08:28:06;;;;;;;0.50;0.30;;;;;;;7.49;64.48;95673.72;5004563;28;20038;-80
2024/02/24 08:30:32;;;;;;;0.80;0.40;;;;;;;7.72;63.10;95688.97;5014575;28;20040;-79
2024/02/24 08:32:58;;;;;;;1.17;0.47;;;;;;;7.58;63.66;95702.44;5014282;28;20068;-79
2024/02/24 08:35:24;;;;;;;0.75;0.50;;;;;;;7.34;65.63;95689.28;4984303;28;20092;-80
2024/02/24 08:37:49;;;;;;;0.30;0.30;;;;;;;7.57;63.11;95697.53;5007175;28;20037;-79
2024/02/24 08:40:15;;;;;;;0.95;0.40;;;;;;;7.66;64.24;95706.34;5014335;28;20038;-79
2024/02/24 08:42:40;;;;;;;0.80;0.45;;;;;;;7.60;64.07;95708.16;4999915;28;20132;-78
2024/02/24 08:45:06;;;;;;;0.77;0.30;;;;;;;7.65;64.48;95720.31;4989933;28;20448;-80
2024/02/24 08:47:32;;;;;;;0.60;0.40;;;;;;;7.80;63.86;95724.72;5001804;28;20040;-79
2024/02/24 08:49:57;;;;;;;1.20;0.40;;;;;;;7.58;63.33;95722.41;5007259;28;20034;-78
2024/02/24 08:52:23;;;;;;;1.50;0.30;;;;;;;7.72;63.18;95725.25;4974174;28;20030;-79
2024/02/24 08:54:48;;;;;;;1.05;0.40;;;;;;;7.97;62.84;95735.56;5004477;28;20080;-79
2024/02/24 08:57:14;;;;;;;2.78;0.30;;;;;;;8.04;62.51;95738.66;5023902;28;20065;-79
2024/02/24 08:59:40;;;;;;;0.47;0.30;;;;;;;8.09;62.26;95739.66;5012406;28;20561;-79
2024/02/24 09:02:06;;;;;;;1.25;0.40;;;;;;;8.06;61.82;95741.75;5008675;28;20050;-80
2024/02/24 09:04:32;;;;;;;0.50;0.20;;;;;;;8.32;62.74;95744.25;4993445;28;20398;-79
2024/02/24 09:06:59;;;;;;;0.75;0.40;;;;;;;8.29;61.52;95746.63;4985032;28;20026;-79
2024/02/24 09:09:24;;;;;;;2.13;0.60;;;;;;;8.32;61.94;95741.66;5017987;28;20108;-79
2024/02/24 09:11:49;;;;;;;1.15;0.60;;;;;;;8.42;61.51;95757.22;5014896;28;20116;-79
2024/02/24 09:14:15;;;;;;;1.17;0.47;;;;;;;8.00;62.34;95750.59;4978239;28;20528;-79
2024/02/24 09:16:41;;;;;;;0.80;0.57;;;;;;;8.40;60.43;95769.66;5005184;28;20037;-79
2024/02/24 09:19:06;;;;;;;1.25;0.47;;;;;;;8.53;61.26;95762.38;5019018;28;20083;-83
2024/02/24 09:21:32;;;;;;;1.42;0.60;;;;;;;8.46;61.28;95756.69;4977694;28;20030;-85
2024/02/24 09:23:57;;;;;;;1.20;0.75;;;;;;;8.36;61.64;95775.63;4998201;28;20038;-84
2024/02/24 09:26:23;;;;;;;1.17;0.40;;;;;;;8.36;61.27;95770.44;4980791;28;20048;-83
2024/02/24 09:28:49;;;;;;;0.60;0.50;;;;;;;8.37;61.06;95777.19;5014104;28;20025;-82
2024/02/24 09:31:14;;;;;;;0.70;0.43;;;;;;;8.34;59.37;95773.28;4995580;28;20045;-83
2024/02/24 09:33:39;;;;;;;0.60;0.47;;;;;;;8.54;60.51;95777.69;5006917;28;20060;-84
2024/02/24 09:36:05;;;;;;;0.82;0.40;;;;;;;8.62;58.66;95786.75;4993682;28;20390;-83
2024/02/24 09:38:30;;;;;;;0.52;0.40;;;;;;;8.58;60.75;95788.31;4995346;28;20042;-84
2024/02/24 09:40:56;;;;;;;0.60;0.40;;;;;;;8.93;60.14;95802.19;4995242;28;20042;-84
2024/02/24 09:43:22;;;;;;;1.48;0.45;;;;;;;9.05;60.08;95794.84;5013467;28;20076;-83
2024/02/24 09:45:48;;;;;;;0.98;0.60;;;;;;;9.00;59.93;95805.25;5009557;28;20038;-84
2024/02/24 09:48:14;;;;;;;0.90;0.70;;;;;;;8.94;58.41;95812.28;5010135;28;20485;-83
2024/02/24 09:50:40;;;;;;;1.73;0.80;;;;;;;8.94;56.65;95812.28;4997418;28;20042;-83
2024/02/24 09:53:06;;;;;;;2.85;0.50;;;;;;;8.94;57.42;95807.09;4992284;28;20100;-83
2024/02/24 09:55:31;;;;;;;1.35;0.43;;;;;;;8.95;57.80;95813.84;5004220;28;20049;-88
2024/02/24 09:57:57;;;;;;;1.13;0.50;;;;;;;8.80;57.79;95824.28;4997356;28;20041;-87
2024/02/24 10:00:23;;;;;;;1.25;0.60;;;;;;;8.98;57.99;95828.13;4988125;28;20029;-86
2024/02/24 10:02:49;;;;;;;0.93;0.40;;;;;;;9.13;58.95;95816.88;5023206;28;20490;-84
2024/02/24 10:05:17;;;;;;;1.15;0.30;;;;;;;9.05;57.88;95825.19;5010371;28;20357;-84
2024/02/24 10:07:43;;;;;;;0.30;0.30;;;;;;;9.16;56.75;95830.09;5015612;28;20502;-83
2024/02/24 10:10:10;;;;;;;1.17;0.50;;;;;;;9.25;56.72;95829.53;5007339;28;20530;-83
2024/02/24 10:12:36;;;;;;;3.08;0.55;;;;;;;8.92;56.58;95826.56;5000476;28;20038;-83
2024/02/24 10:15:01;;;;;;;0.45;0.25;;;;;;;9.22;56.41;95819.66;5009289;28;20100;-84
2024/02/24 10:17:30;;;;;;;0.28;0.28;;;;;;;9.46;55.81;95832.78;4976920;28;20485;-83
2024/02/24 10:19:56;;;;;;;0.45;0.20;;;;;;;9.38;55.99;95823.75;5009358;28;20411;-79
2024/02/24 10:22:22;;;;;;;1.25;0.30;;;;;;;9.47;56.54;95826.53;5008565;28;20061;-80
2024/02/24 10:24:47;;;;;;;1.75;0.32;;;;;;;9.73;55.80;95829.72;5008771;28;20030;-77
2024/02/24 10:27:15;;;;;;;0.43;0.30;;;;;;;9.91;54.55;95815.31;4983531;28;20057;-79
2024/02/24 10:29:41;;;;;;;0.95;0.30;;;;;;;9.50;53.17;95816.38;4998237;28;20405;-78
2024/02/24 10:32:06;;;;;;;0.47;0.20;;;;;;;9.64;53.77;95834.72;4994862;28;20030;-79
2024/02/24 10:34:31;;;;;;;0.85;0.40;;;;;;;9.46;53.97;95833.56;5008848;28;20554;-79
2024/02/24 10:37:00;;;;;;;0.70;0.30;;;;;;;9.56;53.99;95838.69;4975767;28;20076;-79
2024/02/24 10:39:26;;;;;;;0.35;0.30;;;;;;;9.50;54.76;95826.78;4984224;28;20036;-78
2024/02/24 10:41:52;;;;;;;0.40;0.20;;;;;;;9.86;53.69;95842.09;5010492;28;20029;-78
2024/02/24 10:44:17;;;;;;;1.10;0.30;;;;;;;9.80;55.66;95834.63;4993896;28;20433;-78
2024/02/24 10:46:43;;;;;;;1.08;0.40;;;;;;;10.14;55.88;95834.59;4981750;28;20030;-79
2024/02/24 10:49:11;;;;;;;0.32;0.20;;;;;;;10.40;53.76;95829.97;5001984;28;20033;-79
2024/02/24 10:51:36;;;;;;;0.95;0.30;;;;;;;10.79;51.43;95846.47;4982710;28;20034;-79
2024/02/24 10:54:15;;;;;;;0.30;0.30;;;;;;;10.63;50.71;95835.44;4982879;28;20040;-79
2024/02/24 10:56:40;;;;;;;0.75;0.20;;;;;;;10.44;52.08;95841.38;5021920;28;20037;-80
2024/02/24 10:59:10;;;;;;;0.55;0.30;;;;;;;10.42;51.32;95840.09;5010549;28;20100;-77
2024/02/24 11:01:44;;;;;;;0.30;0.20;;;;;;;10.33;51.22;95846.94;4976166;28;20038;-79
2024/02/24 11:04:11;;;;;;;1.17;0.30;;;;;;;10.08;52.59;95833.09;4994387;28;20037;-79
2024/02/24 11:06:44;;;;;;;0.65;0.20;;;;;;;9.80;53.20;95848.41;4988234;28;20037;-78
2024/02/24 11:09:14;;;;;;;0.80;0.10;;;;;;;9.57;54.46;95837.63;5015685;28;20121;-78
2024/02/24 11:11:40;;;;;;;0.75;0.30;;;;;;;9.61;54.49;95837.09;5010185;28;20034;-78
2024/02/24 11:14:06;;;;;;;1.17;0.20;;;;;;;9.68;56.84;95833.16;4993637;28;20555;-79
2024/02/24 11:16:37;;;;;;;0.10;0.10;;;;;;;10.02;54.41;95839.38;5015116;28;20130;-79
2024/02/24 11:19:10;;;;;;;0.40;0.20;;;;;;;10.41;53.41;95828.13;5015230;28;20030;-79
2024/02/24 11:21:58;;;;;;;0.80;0.20;;;;;;;10.88;53.21;95829.16;5002278;28;20614;-79
2024/02/24 11:24:32;;;;;;;1.17;0.30;;;;;;;11.08;49.17;95817.72;4998438;28;20042;-79
2024/02/24 11:26:58;;;;;;;0.30;0.30;;;;;;;11.28;49.53;95821.13;4975394;28;20073;-79
2024/02/24 11:29:26;;;;;;;0.82;0.20;;;;;;;11.35;50.09;95827.53;5010892;28;20143;-86
2024/02/24 11:32:03;;;;;;;0.90;0.20;;;;;;;11.71;48.56;95821.78;4979311;28;20113;-83
2024/02/24 11:34:32;;;;;;;1.00;0.30;;;;;;;12.21;48.20;95817.91;4975549;28;20030;-84
2024/02/24 11:36:58;;;;;;;0.60;0.50;;;;;;;12.42;45.65;95824.28;5007736;28;20488;-84